Time;durP1;ratioP1;P1;durP2;ratioP2;P2;SDS_P1;SDS_P2;PMS_P1;PMS_P2;Temp;Humidity;BMP_temperature;BMP_pressure;BME280_temperature;BME280_humidity;BME280_pressure;Samples;Min_cycle;Max_cycle;Signal;HPM_P1;HPM_P2
2021/12/26 00:00:04;;;;;;;;;;;;;;;18.42;62.27;100356.81;6040613;23;1071;-40
2021/12/26 00:02:32;;;;;;;;;;;;;;;18.64;60.92;100344.06;6040204;23;1277;-40
2021/12/26 00:04:58;;;;;;;;;;;;;;;18.57;61.46;100346.50;6041347;23;1086;-39
2021/12/26 00:07:25;;;;;;;;;;;;;;;18.42;61.78;100347.91;6040867;23;1097;-40
2021/12/26 00:09:51;;;;;;;;;;;;;;;18.34;62.68;100355.81;6040670;23;1083;-40
2021/12/26 00:12:17;;;;;;;;;;;;;;;18.34;62.57;100356.63;6040878;23;1075;-40
2021/12/26 00:14:44;;;;;;;;;;;;;;;18.58;61.79;100350.88;6040911;23;1193;-40
2021/12/26 00:17:10;;;;;;;;;;;;;;;18.61;61.39;100358.59;6040466;23;1943;-40
2021/12/26 00:19:38;;;;;;;;;;;;;;;18.43;61.98;100357.63;6041165;23;1051;-39
2021/12/26 00:22:05;;;;;;;;;;;;;;;18.29;62.68;100345.53;6040496;23;1147;-40
2021/12/26 00:24:31;;;;;;;;;;;;;;;18.29;62.96;100361.59;6040416;23;1126;-40
2021/12/26 00:26:58;;;;;;;;;;;;;;;18.28;62.66;100351.84;6040744;23;1019;-40
2021/12/26 00:29:24;;;;;;;;;;;;;;;18.36;62.76;100361.84;6040763;23;1053;-40
2021/12/26 00:31:51;;;;;;;;;;;;;;;18.25;62.35;100339.59;6040289;23;1084;-40
2021/12/26 00:34:17;;;;;;;;;;;;;;;18.24;62.71;100364.69;6041097;23;1051;-40
2021/12/26 00:36:45;;;;;;;;;;;;;;;18.21;62.65;100373.00;6040679;23;1897;-40
2021/12/26 00:39:12;;;;;;;;;;;;;;;18.29;62.84;100358.91;6040617;23;1020;-39
2021/12/26 00:41:39;;;;;;;;;;;;;;;18.31;62.79;100356.09;6040730;23;1043;-40
2021/12/26 00:44:06;;;;;;;;;;;;;;;18.30;62.89;100341.84;6040604;23;1066;-40
2021/12/26 00:46:32;;;;;;;;;;;;;;;18.27;62.77;100348.34;6040523;23;1071;-40
2021/12/26 00:48:59;;;;;;;;;;;;;;;18.27;62.48;100344.81;6040829;23;1024;-40
2021/12/26 00:51:25;;;;;;;;;;;;;;;18.35;62.29;100336.09;6040561;23;1078;-40
2021/12/26 00:53:53;;;;;;;;;;;;;;;18.31;62.91;100337.38;6040489;23;1087;-40
2021/12/26 00:56:20;;;;;;;;;;;;;;;18.36;62.08;100343.13;6040407;23;1095;-40
2021/12/26 00:58:46;;;;;;;;;;;;;;;18.26;62.58;100345.78;6040035;23;1893;-40
2021/12/26 01:01:13;;;;;;;;;;;;;;;18.27;62.54;100345.66;6040001;23;1435;-40
2021/12/26 01:03:39;;;;;;;;;;;;;;;18.36;61.85;100346.63;6040070;23;1073;-40
2021/12/26 01:06:06;;;;;;;;;;;;;;;18.31;62.46;100348.06;6040742;23;1055;-40
2021/12/26 01:08:37;;;;;;;;;;;;;;;18.26;62.92;100351.16;6040313;23;1087;-39
2021/12/26 01:11:08;;;;;;;;;;;;;;;18.29;62.97;100365.09;6039889;23;1064;-40
2021/12/26 01:13:37;;;;;;;;;;;;;;;18.32;62.55;100355.94;6040303;23;1074;-40
2021/12/26 01:16:06;;;;;;;;;;;;;;;18.22;62.49;100366.66;6039839;23;1088;-40
2021/12/26 01:18:35;;;;;;;;;;;;;;;18.38;62.60;100359.88;6040092;23;1897;-40
2021/12/26 01:21:15;;;;;;;;;;;;;;;18.36;62.81;100367.22;6040159;23;1318;-40
2021/12/26 01:23:41;;;;;;;;;;;;;;;18.51;62.31;100371.16;6040276;23;1070;-40
2021/12/26 01:26:09;;;;;;;;;;;;;;;18.43;62.46;100353.13;6040284;23;1086;-39
2021/12/26 01:28:36;;;;;;;;;;;;;;;18.37;62.38;100359.06;6039868;23;1077;-40
2021/12/26 01:31:02;;;;;;;;;;;;;;;18.32;62.59;100360.44;6040064;23;1298;-40
2021/12/26 01:33:29;;;;;;;;;;;;;;;18.25;62.82;100349.47;6039700;23;1103;-40
2021/12/26 01:35:55;;;;;;;;;;;;;;;18.24;62.63;100356.66;6039967;23;1076;-40
2021/12/26 01:38:22;;;;;;;;;;;;;;;18.26;63.07;100337.75;6040009;23;1937;-40
2021/12/26 01:40:50;;;;;;;;;;;;;;;18.32;62.63;100333.69;6040402;23;1047;-40
2021/12/26 01:43:19;;;;;;;;;;;;;;;18.25;62.75;100344.97;6039665;23;1115;-40
2021/12/26 01:45:46;;;;;;;;;;;;;;;18.33;62.23;100348.78;6040046;23;1024;-40
2021/12/26 01:48:13;;;;;;;;;;;;;;;18.35;62.78;100350.31;6040400;23;1016;-40
2021/12/26 01:50:40;;;;;;;;;;;;;;;18.31;62.52;100342.72;6039824;23;1080;-40
2021/12/26 01:53:08;;;;;;;;;;;;;;;18.26;62.66;100343.13;6040300;23;1071;-39
2021/12/26 01:55:40;;;;;;;;;;;;;;;18.23;62.33;100352.28;6039437;23;1092;-39
2021/12/26 01:58:07;;;;;;;;;;;;;;;18.27;62.34;100342.97;6039588;23;1901;-40
2021/12/26 02:00:36;;;;;;;;;;;;;;;18.32;62.74;100347.91;6039605;23;1100;-40
2021/12/26 02:03:02;;;;;;;;;;;;;;;18.28;62.62;100350.03;6039254;23;1360;-40
2021/12/26 02:05:29;;;;;;;;;;;;;;;18.28;62.83;100339.34;6040300;23;1004;-40
2021/12/26 02:07:55;;;;;;;;;;;;;;;18.27;62.64;100353.69;6039751;23;1067;-39
2021/12/26 02:10:22;;;;;;;;;;;;;;;18.32;62.55;100371.16;6039720;23;1090;-40
2021/12/26 02:12:48;;;;;;;;;;;;;;;18.35;62.57;100362.88;6039884;23;1179;-40
2021/12/26 02:15:15;;;;;;;;;;;;;;;18.33;62.35;100364.84;6039472;23;1104;-40
2021/12/26 02:17:43;;;;;;;;;;;;;;;18.28;62.98;100367.91;6039699;23;1894;-40
2021/12/26 02:20:18;;;;;;;;;;;;;;;18.29;62.82;100365.09;6040318;23;1085;-40
2021/12/26 02:22:49;;;;;;;;;;;;;;;18.26;62.75;100368.06;6039842;23;1074;-40
2021/12/26 02:25:29;;;;;;;;;;;;;;;18.32;62.49;100363.97;6039907;23;1060;-39
2021/12/26 02:27:54;;;;;;;;;;;;;;;18.33;62.62;100370.19;6039792;23;1071;-39
2021/12/26 02:30:22;;;;;;;;;;;;;;;18.35;62.59;100360.19;6039391;23;2024;-39
2021/12/26 02:32:50;;;;;;;;;;;;;;;18.34;62.79;100378.06;6039706;23;1058;-39
2021/12/26 02:35:19;;;;;;;;;;;;;;;18.37;62.64;100374.28;6040269;23;1074;-40
2021/12/26 02:37:45;;;;;;;;;;;;;;;18.34;62.36;100371.88;6039560;23;1905;-40
2021/12/26 02:40:13;;;;;;;;;;;;;;;18.34;62.35;100369.19;6040477;23;1134;-39
2021/12/26 02:42:39;;;;;;;;;;;;;;;18.38;62.37;100355.41;6041704;23;1082;-39
2021/12/26 02:45:06;;;;;;;;;;;;;;;18.33;62.71;100356.81;6041201;23;1136;-39
2021/12/26 02:47:33;;;;;;;;;;;;;;;18.38;61.89;100365.25;6041555;23;1086;-39
2021/12/26 02:50:00;;;;;;;;;;;;;;;18.31;62.71;100366.81;6041623;23;1080;-40
2021/12/26 02:52:28;;;;;;;;;;;;;;;18.48;61.71;100358.03;6041284;23;1101;-40
2021/12/26 02:54:55;;;;;;;;;;;;;;;18.47;62.16;100377.78;6041629;23;1062;-40
2021/12/26 02:57:21;;;;;;;;;;;;;;;18.35;62.50;100365.53;6041581;23;1897;-39
2021/12/26 02:59:48;;;;;;;;;;;;;;;18.43;62.27;100371.03;6041489;23;1074;-40
2021/12/26 03:02:16;;;;;;;;;;;;;;;18.36;62.44;100357.34;6094433;23;3500;-39
2021/12/26 03:04:43;;;;;;;;;;;;;;;18.40;62.33;100363.25;6127536;23;1078;-39
2021/12/26 03:07:09;;;;;;;;;;;;;;;18.36;62.40;100356.50;6127872;23;1078;-39
2021/12/26 03:09:45;;;;;;;;;;;;;;;18.32;62.75;100361.28;6127597;23;995;-39
2021/12/26 03:12:13;;;;;;;;;;;;;;;18.35;62.42;100363.69;6128017;23;1054;-39
2021/12/26 03:14:41;;;;;;;;;;;;;;;18.37;62.56;100363.56;6128584;23;990;-39
2021/12/26 03:17:13;;;;;;;;;;;;;;;18.32;62.73;100381.88;6128029;23;1071;-39
2021/12/26 03:19:41;;;;;;;;;;;;;;;18.36;62.51;100386.78;6128331;23;1010;-39
2021/12/26 03:22:08;;;;;;;;;;;;;;;18.36;61.77;100397.50;6128240;23;1054;-39
2021/12/26 03:24:37;;;;;;;;;;;;;;;18.42;62.37;100402.31;6128150;23;1045;-39
2021/12/26 03:27:10;;;;;;;;;;;;;;;18.44;61.77;100403.03;6128268;23;1085;-39
2021/12/26 03:29:36;;;;;;;;;;;;;;;18.29;62.14;100409.78;6128272;23;1209;-39
2021/12/26 03:32:04;;;;;;;;;;;;;;;17.98;63.03;100407.16;6127817;23;1083;-39
2021/12/26 03:34:30;;;;;;;;;;;;;;;17.79;63.79;100407.94;6128059;23;1113;-39
2021/12/26 03:37:00;;;;;;;;;;;;;;;17.65;64.13;100414.53;6127584;23;1102;-40
2021/12/26 03:39:29;;;;;;;;;;;;;;;17.56;64.33;100427.84;6127515;23;1897;-39
2021/12/26 03:42:00;;;;;;;;;;;;;;;17.48;64.56;100433.84;6128069;23;1049;-40
2021/12/26 03:44:34;;;;;;;;;;;;;;;17.44;64.56;100430.59;6127552;23;1115;-39
2021/12/26 03:47:01;;;;;;;;;;;;;;;17.37;64.59;100429.47;6127711;23;1260;-40
2021/12/26 03:49:28;;;;;;;;;;;;;;;17.32;64.81;100439.69;6126772;23;1219;-39
2021/12/26 03:51:58;;;;;;;;;;;;;;;17.26;65.21;100432.19;6127489;23;1085;-39
2021/12/26 03:54:25;;;;;;;;;;;;;;;17.24;64.62;100436.84;6127822;23;1010;-40
2021/12/26 03:56:52;;;;;;;;;;;;;;;17.21;64.74;100450.44;6127903;23;950;-40
2021/12/26 03:59:19;;;;;;;;;;;;;;;17.17;64.62;100443.66;6127897;23;1938;-39
2021/12/26 04:01:50;;;;;;;;;;;;;;;17.14;65.02;100449.28;6126237;23;1362;-39
2021/12/26 04:04:21;;;;;;;;;;;;;;;17.13;64.81;100450.25;6098505;23;1148;-39
2021/12/26 04:06:51;;;;;;;;;;;;;;;17.08;64.69;100435.47;6098549;23;1055;-39
2021/12/26 04:09:26;;;;;;;;;;;;;;;17.06;64.64;100456.13;6098416;23;1094;-40
2021/12/26 04:11:55;;;;;;;;;;;;;;;17.06;64.77;100464.13;6098380;23;1030;-39
2021/12/26 04:14:23;;;;;;;;;;;;;;;16.99;64.68;100459.44;6098174;23;1096;-39
2021/12/26 04:16:53;;;;;;;;;;;;;;;17.02;64.81;100467.22;6098453;23;1224;-40
2021/12/26 04:19:20;;;;;;;;;;;;;;;17.00;64.66;100463.81;6098596;23;1944;-39
2021/12/26 04:21:54;;;;;;;;;;;;;;;16.97;64.94;100486.31;6098476;23;987;-39
2021/12/26 04:24:22;;;;;;;;;;;;;;;16.97;64.57;100480.97;6098015;23;1080;-40
2021/12/26 04:26:52;;;;;;;;;;;;;;;16.93;64.67;100479.53;6097901;23;1055;-40
2021/12/26 04:29:23;;;;;;;;;;;;;;;16.90;64.42;100496.63;6097764;23;1067;-39
2021/12/26 04:31:55;;;;;;;;;;;;;;;16.89;64.64;100492.28;6097932;23;1111;-39
2021/12/26 04:34:25;;;;;;;;;;;;;;;16.85;64.97;100498.00;6098558;23;1094;-39
2021/12/26 04:36:52;;;;;;;;;;;;;;;16.85;64.32;100496.19;6098172;23;1038;-39
2021/12/26 04:39:18;;;;;;;;;;;;;;;16.82;65.12;100496.44;6098140;23;1918;-39
2021/12/26 04:41:48;;;;;;;;;;;;;;;16.85;65.17;100503.34;6097622;23;1192;-39
2021/12/26 04:44:18;;;;;;;;;;;;;;;16.80;64.83;100494.84;6097721;23;1112;-39
2021/12/26 04:46:46;;;;;;;;;;;;;;;16.78;64.29;100513.66;6098058;23;1022;-39
2021/12/26 04:49:16;;;;;;;;;;;;;;;16.79;64.89;100507.34;6098109;23;1088;-39
2021/12/26 04:51:44;;;;;;;;;;;;;;;16.77;64.96;100513.78;6097690;23;1091;-39
2021/12/26 04:54:13;;;;;;;;;;;;;;;16.77;64.56;100517.31;6096789;23;1148;-39
2021/12/26 04:56:39;;;;;;;;;;;;;;;16.74;64.71;100522.06;6097624;23;948;-39
2021/12/26 04:59:10;;;;;;;;;;;;;;;16.76;64.84;100520.09;6097949;23;1870;-39
2021/12/26 05:01:40;;;;;;;;;;;;;;;16.73;64.87;100531.03;6097995;23;1002;-39
2021/12/26 05:04:17;;;;;;;;;;;;;;;16.74;64.79;100527.41;6097823;23;1422;-39
2021/12/26 05:06:49;;;;;;;;;;;;;;;16.70;64.71;100535.66;6097770;23;2184;-39
2021/12/26 05:09:19;;;;;;;;;;;;;;;16.70;64.99;100532.97;6097976;23;1014;-39
2021/12/26 05:11:49;;;;;;;;;;;;;;;16.67;64.99;100546.59;6097898;23;1099;-39
2021/12/26 05:14:19;;;;;;;;;;;;;;;16.65;65.18;100534.31;6097579;23;1139;-40
2021/12/26 05:16:45;;;;;;;;;;;;;;;16.64;65.16;100530.81;6097414;23;964;-39
2021/12/26 05:19:14;;;;;;;;;;;;;;;16.62;64.22;100539.94;6097237;23;1900;-39
2021/12/26 05:21:44;;;;;;;;;;;;;;;16.61;64.51;100548.91;6097754;23;1059;-39
2021/12/26 05:24:14;;;;;;;;;;;;;;;16.56;64.90;100535.94;6097898;23;1069;-40
2021/12/26 05:26:44;;;;;;;;;;;;;;;16.58;65.00;100534.00;6097805;23;1055;-39
2021/12/26 05:29:12;;;;;;;;;;;;;;;16.61;65.28;100551.56;6097744;23;1046;-40
2021/12/26 05:31:41;;;;;;;;;;;;;;;16.59;65.31;100557.06;6096664;23;2040;-39
2021/12/26 05:34:07;;;;;;;;;;;;;;;16.58;64.05;100559.84;6097983;23;1236;-39
2021/12/26 05:36:35;;;;;;;;;;;;;;;16.57;65.11;100558.97;6097761;23;1026;-39
2021/12/26 05:39:04;;;;;;;;;;;;;;;16.56;64.85;100561.78;6097325;23;1889;-39
2021/12/26 05:41:36;;;;;;;;;;;;;;;16.55;64.39;100571.59;6097693;23;1077;-40
2021/12/26 05:44:03;;;;;;;;;;;;;;;16.53;64.78;100578.88;6097658;23;1083;-39
2021/12/26 05:46:32;;;;;;;;;;;;;;;16.54;64.42;100558.41;6097599;23;1086;-40
2021/12/26 05:49:00;;;;;;;;;;;;;;;16.47;64.86;100555.34;6097493;23;1225;-39
2021/12/26 05:51:27;;;;;;;;;;;;;;;16.48;64.30;100565.06;6097633;23;1014;-39
2021/12/26 05:53:57;;;;;;;;;;;;;;;16.49;64.27;100567.63;6097611;23;1038;-39
2021/12/26 05:56:29;;;;;;;;;;;;;;;16.49;64.95;100556.06;6097522;23;991;-39
2021/12/26 05:59:02;;;;;;;;;;;;;;;16.45;65.14;100557.31;6097462;23;1936;-39
2021/12/26 06:01:29;;;;;;;;;;;;;;;16.47;65.09;100558.03;6097562;23;1050;-40
2021/12/26 06:03:58;;;;;;;;;;;;;;;16.45;64.97;100568.84;6097281;23;1315;-39
2021/12/26 06:06:27;;;;;;;;;;;;;;;16.45;65.11;100575.97;6097053;23;1091;-39
2021/12/26 06:08:58;;;;;;;;;;;;;;;16.45;65.02;100558.19;6097319;23;1000;-40
2021/12/26 06:11:34;;;;;;;;;;;;;;;16.42;64.17;100576.25;6096556;23;1055;-39
2021/12/26 06:14:08;;;;;;;;;;;;;;;16.41;64.77;100577.19;6097229;23;996;-39
2021/12/26 06:16:39;;;;;;;;;;;;;;;16.41;64.20;100575.41;6097029;23;1079;-39
2021/12/26 06:19:08;;;;;;;;;;;;;;;16.40;63.99;100583.53;6097844;23;1900;-39
2021/12/26 06:21:38;;;;;;;;;;;;;;;16.43;64.01;100577.94;6097991;23;1036;-39
2021/12/26 06:24:06;;;;;;;;;;;;;;;16.41;64.00;100577.19;6096964;23;1067;-39
2021/12/26 06:26:33;;;;;;;;;;;;;;;16.43;64.70;100585.94;6097287;23;1106;-39
2021/12/26 06:29:00;;;;;;;;;;;;;;;16.38;64.01;100577.47;6097328;23;1066;-39
2021/12/26 06:31:31;;;;;;;;;;;;;;;16.40;64.08;100588.88;6097244;23;1066;-39
2021/12/26 06:33:58;;;;;;;;;;;;;;;16.40;64.67;100583.53;6097629;23;980;-39
2021/12/26 06:36:28;;;;;;;;;;;;;;;16.36;64.32;100588.25;6096426;23;1082;-39
2021/12/26 06:38:57;;;;;;;;;;;;;;;16.36;64.47;100590.09;6097299;23;1940;-39
2021/12/26 06:41:33;;;;;;;;;;;;;;;16.35;63.87;100583.03;6096943;23;1119;-39
2021/12/26 06:44:05;;;;;;;;;;;;;;;16.30;64.30;100589.59;6097161;23;1054;-39
2021/12/26 06:46:38;;;;;;;;;;;;;;;16.28;63.81;100586.19;6096347;23;1054;-40
2021/12/26 06:49:08;;;;;;;;;;;;;;;16.33;64.43;100592.97;6097667;23;1003;-39
2021/12/26 06:51:35;;;;;;;;;;;;;;;16.30;64.08;100597.59;6097438;23;1002;-39
2021/12/26 06:54:02;;;;;;;;;;;;;;;16.29;64.24;100611.06;6097356;23;1090;-39
2021/12/26 06:56:30;;;;;;;;;;;;;;;16.29;64.29;100613.72;6092904;23;1015;-39
2021/12/26 06:59:01;;;;;;;;;;;;;;;16.32;64.19;100628.66;6097243;23;1893;-39
2021/12/26 07:01:28;;;;;;;;;;;;;;;16.28;64.44;100623.56;6097310;23;1046;-39
2021/12/26 07:03:58;;;;;;;;;;;;;;;16.28;63.91;100604.88;6092931;23;1393;-39
2021/12/26 07:06:25;;;;;;;;;;;;;;;16.29;64.02;100608.38;6097128;23;1082;-39
2021/12/26 07:08:51;;;;;;;;;;;;;;;16.32;63.96;100616.16;6097168;23;1079;-39
2021/12/26 07:11:18;;;;;;;;;;;;;;;16.30;64.78;100621.59;6096807;23;1382;-39
2021/12/26 07:13:44;;;;;;;;;;;;;;;16.26;63.87;100598.81;6096474;23;1019;-39
2021/12/26 07:16:13;;;;;;;;;;;;;;;16.29;64.77;100609.25;6096905;23;1085;-39
2021/12/26 07:18:43;;;;;;;;;;;;;;;16.29;64.73;100608.38;6096816;23;1897;-39
2021/12/26 07:21:13;;;;;;;;;;;;;;;16.29;63.93;100619.94;6096809;23;998;-39
2021/12/26 07:23:42;;;;;;;;;;;;;;;16.33;65.00;100630.34;6097330;23;1023;-39
2021/12/26 07:26:08;;;;;;;;;;;;;;;16.28;65.22;100618.22;6097481;23;1054;-39
2021/12/26 07:28:36;;;;;;;;;;;;;;;16.26;65.31;100625.50;6098841;23;1086;-41
2021/12/26 07:31:03;;;;;;;;;;;;;;;16.24;64.61;100626.59;6098806;23;1071;-39
2021/12/26 07:33:32;;;;;;;;;;;;;;;16.23;64.44;100623.06;6097721;23;1051;-39
2021/12/26 07:36:00;;;;;;;;;;;;;;;16.22;64.80;100629.38;6098858;23;1103;-39
2021/12/26 07:38:28;;;;;;;;;;;;;;;16.23;65.18;100627.56;6098601;23;1071;-40
2021/12/26 07:43:38;;;;;;;;;;;;;;;16.26;64.45;100636.16;6098475;23;2285;-40
2021/12/26 07:46:08;;;;;;;;;;;;;;;16.19;64.26;100629.59;6099028;23;1067;-39
2021/12/26 07:48:35;;;;;;;;;;;;;;;16.19;64.48;100628.75;6098770;23;999;-39
2021/12/26 07:51:05;;;;;;;;;;;;;;;16.24;64.75;100645.28;6097657;23;1095;-39
2021/12/26 07:53:37;;;;;;;;;;;;;;;16.22;64.23;100648.06;6098563;23;995;-41
2021/12/26 07:56:07;;;;;;;;;;;;;;;16.18;63.98;100645.75;6098590;23;1237;-40
2021/12/26 07:58:34;;;;;;;;;;;;;;;16.18;65.30;100645.75;6098954;23;1058;-39
2021/12/26 08:01:04;;;;;;;;;;;;;;;16.19;64.58;100655.44;6095128;23;1897;-39
2021/12/26 08:03:34;;;;;;;;;;;;;;;16.16;65.03;100635.19;6098161;23;1366;-39
2021/12/26 08:06:02;;;;;;;;;;;;;;;16.19;64.20;100656.28;6098577;23;1031;-39
2021/12/26 08:08:38;;;;;;;;;;;;;;;16.20;64.52;100646.47;6087841;23;1055;-39
2021/12/26 08:11:15;;;;;;;;;;;;;;;16.16;64.28;100645.88;6098317;23;1063;-39
2021/12/26 08:13:47;;;;;;;;;;;;;;;16.18;65.03;100646.59;6098412;23;1008;-39
2021/12/26 08:16:14;;;;;;;;;;;;;;;16.18;64.69;100649.25;6098756;23;982;-39
2021/12/26 08:18:44;;;;;;;;;;;;;;;16.20;64.54;100652.66;6098463;23;1060;-39
2021/12/26 08:21:13;;;;;;;;;;;;;;;16.18;64.59;100654.59;6098252;23;1926;-39
2021/12/26 08:23:40;;;;;;;;;;;;;;;16.20;64.42;100654.50;6097882;23;1130;-39
2021/12/26 08:26:12;;;;;;;;;;;;;;;16.19;64.49;100660.78;6097993;23;1127;-39
2021/12/26 08:28:41;;;;;;;;;;;;;;;16.16;63.84;100640.53;6098293;23;1083;-39
2021/12/26 08:31:09;;;;;;;;;;;;;;;16.19;64.72;100653.63;6098569;23;1073;-39
2021/12/26 08:33:36;;;;;;;;;;;;;;;16.16;63.79;100643.19;6097575;23;1207;-39
2021/12/26 08:36:17;;;;;;;;;;;;;;;16.17;64.11;100642.22;6097910;23;1099;-39
2021/12/26 08:38:53;;;;;;;;;;;;;;;16.19;63.81;100645.59;6097775;23;1094;-39
2021/12/26 08:41:23;;;;;;;;;;;;;;;16.17;63.99;100641.38;6098154;23;999;-39
2021/12/26 08:43:53;;;;;;;;;;;;;;;16.15;64.09;100632.63;6098051;23;1061;-39
2021/12/26 08:46:28;;;;;;;;;;;;;;;16.14;64.70;100626.47;6098080;23;1063;-40
2021/12/26 08:48:56;;;;;;;;;;;;;;;16.11;64.13;100618.69;6098380;23;1011;-39
2021/12/26 08:51:26;;;;;;;;;;;;;;;16.13;64.85;100607.91;6096888;23;1087;-39
2021/12/26 08:53:52;;;;;;;;;;;;;;;16.13;64.96;100602.56;6098188;23;1003;-40
2021/12/26 08:56:24;;;;;;;;;;;;;;;16.13;64.15;100598.06;6098062;23;1086;-39
2021/12/26 08:58:55;;;;;;;;;;;;;;;16.14;64.08;100597.13;6097582;23;1091;-40
2021/12/26 09:01:25;;;;;;;;;;;;;;;16.15;64.15;100590.78;6097836;23;1927;-39
2021/12/26 09:03:52;;;;;;;;;;;;;;;16.14;64.10;100589.13;6097821;23;1321;-39
2021/12/26 09:06:19;;;;;;;;;;;;;;;16.10;64.26;100603.66;6097951;23;1086;-40
2021/12/26 09:08:49;;;;;;;;;;;;;;;16.10;64.05;100601.00;6097494;23;1138;-39
2021/12/26 09:11:17;;;;;;;;;;;;;;;16.11;63.89;100594.69;6097591;23;1134;-39
2021/12/26 09:13:49;;;;;;;;;;;;;;;16.13;63.95;100587.41;6097774;23;1030;-41
2021/12/26 09:16:18;;;;;;;;;;;;;;;16.12;64.70;100609.72;6098024;23;1015;-41
2021/12/26 09:18:47;;;;;;;;;;;;;;;16.09;63.90;100597.50;6098045;23;1078;-39
2021/12/26 09:21:13;;;;;;;;;;;;;;;16.12;63.64;100609.72;6097310;23;1931;-39
2021/12/26 09:23:41;;;;;;;;;;;;;;;16.12;63.88;100615.06;6097860;23;1078;-39
2021/12/26 09:26:07;;;;;;;;;;;;;;;16.11;64.19;100616.03;6097368;23;1075;-39
2021/12/26 09:28:36;;;;;;;;;;;;;;;16.09;64.19;100593.94;6097618;23;1194;-39
2021/12/26 09:31:08;;;;;;;;;;;;;;;16.06;65.10;100592.38;6097921;23;1099;-39
2021/12/26 09:33:36;;;;;;;;;;;;;;;16.06;63.61;100595.06;6097619;23;1058;-39
2021/12/26 09:36:03;;;;;;;;;;;;;;;16.04;64.19;100583.66;6097337;23;1108;-39
2021/12/26 09:38:33;;;;;;;;;;;;;;;16.04;64.54;100594.31;6097682;23;1082;-39
2021/12/26 09:41:01;;;;;;;;;;;;;;;16.05;63.96;100581.81;6097497;23;1937;-40
2021/12/26 09:43:31;;;;;;;;;;;;;;;16.06;65.00;100588.88;6093851;23;1074;-39
2021/12/26 09:46:01;;;;;;;;;;;;;;;16.07;63.81;100583.41;6096948;23;1117;-39
2021/12/26 09:48:31;;;;;;;;;;;;;;;16.09;64.10;100592.16;6097548;23;1070;-39
2021/12/26 09:50:59;;;;;;;;;;;;;;;16.12;64.61;100582.22;6097563;23;1069;-39
2021/12/26 09:53:25;;;;;;;;;;;;;;;16.14;64.80;100598.94;6096421;23;1078;-39
2021/12/26 09:55:55;;;;;;;;;;;;;;;16.08;63.81;100589.59;6097459;23;1194;-39
2021/12/26 09:58:24;;;;;;;;;;;;;;;16.06;63.79;100603.06;6097492;23;1066;-39
2021/12/26 10:00:54;;;;;;;;;;;;;;;16.03;63.74;100592.63;6097394;23;1941;-39
2021/12/26 10:03:22;;;;;;;;;;;;;;;16.04;63.56;100614.81;6097071;23;1289;-39
2021/12/26 10:06:09;;;;;;;;;;;;;;;16.05;64.69;100621.84;6097496;23;1031;-39
2021/12/26 10:08:37;;;;;;;;;;;;;;;16.03;64.19;100607.78;6097299;23;1067;-39
2021/12/26 10:11:12;;;;;;;;;;;;;;;16.06;64.21;100623.56;6097252;23;1011;-39
2021/12/26 10:13:49;;;;;;;;;;;;;;;16.04;64.07;100614.81;6096959;23;1146;-39
2021/12/26 10:16:24;;;;;;;;;;;;;;;16.02;63.97;100606.09;6097393;23;1094;-39
2021/12/26 10:18:51;;;;;;;;;;;;;;;16.02;63.58;100601.59;6096970;23;1079;-39
2021/12/26 10:21:24;;;;;;;;;;;;;;;16.01;64.13;100599.03;6097146;23;2052;-39
2021/12/26 10:23:51;;;;;;;;;;;;;;;15.99;63.39;100600.97;6097305;23;1147;-39
2021/12/26 10:26:19;;;;;;;;;;;;;;;16.01;63.67;100599.03;6097302;23;1092;-39
2021/12/26 10:29:02;;;;;;;;;;;;;;;15.98;64.24;100588.63;6097477;23;1083;-39
2021/12/26 10:31:32;;;;;;;;;;;;;;;15.97;64.99;100581.59;6096992;23;1150;-39
2021/12/26 10:34:01;;;;;;;;;;;;;;;15.91;65.18;100583.75;6097119;23;1083;-39
2021/12/26 10:36:31;;;;;;;;;;;;;;;15.94;64.74;100587.19;6097150;23;1103;-39
2021/12/26 10:39:08;;;;;;;;;;;;;;;15.91;64.52;100564.25;6097246;23;995;-39
2021/12/26 10:41:43;;;;;;;;;;;;;;;15.96;64.38;100574.56;6097157;23;1974;-39
2021/12/26 10:44:27;;;;;;;;;;;;;;;15.94;65.01;100571.19;6096864;23;1083;-39
2021/12/26 10:46:55;;;;;;;;;;;;;;;15.96;64.88;100579.91;6094816;23;1379;-40
2021/12/26 10:49:23;;;;;;;;;;;;;;;15.92;64.84;100557.94;6097278;23;1087;-39
2021/12/26 10:51:55;;;;;;;;;;;;;;;15.98;63.65;100575.28;6096862;23;1079;-39
2021/12/26 10:54:36;;;;;;;;;;;;;;;15.91;64.11;100557.09;6097392;23;1011;-39
2021/12/26 10:57:12;;;;;;;;;;;;;;;15.94;65.56;100565.84;6096700;23;1095;-39
2021/12/26 10:59:40;;;;;;;;;;;;;;;15.89;63.98;100561.69;6097135;23;1898;-39
2021/12/26 11:02:07;;;;;;;;;;;;;;;15.88;64.50;100561.84;6098539;23;1398;-39
2021/12/26 11:04:35;;;;;;;;;;;;;;;15.93;64.19;100572.13;6099551;23;1082;-39
2021/12/26 11:07:08;;;;;;;;;;;;;;;15.88;64.86;100565.34;6099185;23;1075;-39
2021/12/26 11:09:38;;;;;;;;;;;;;;;15.90;64.84;100558.06;6099125;23;991;-39
2021/12/26 11:12:07;;;;;;;;;;;;;;;15.89;63.96;100552.84;6099713;23;1093;-39
2021/12/26 11:14:54;;;;;;;;;;;;;;;15.89;64.14;100551.03;6099650;23;1094;-39
2021/12/26 11:17:30;;;;;;;;;;;;;;;15.89;64.67;100556.34;6098618;23;1492;-40
2021/12/26 11:19:57;;;;;;;;;;;;;;;15.91;64.22;100559.75;6099220;23;1894;-39
2021/12/26 11:22:27;;;;;;;;;;;;;;;15.89;63.83;100553.69;6100744;23;987;-39
2021/12/26 11:24:58;;;;;;;;;;;;;;;15.93;63.83;100556.13;6100620;23;1011;-39
2021/12/26 11:27:24;;;;;;;;;;;;;;;15.91;64.60;100565.09;6098921;23;1067;-39
2021/12/26 11:29:52;;;;;;;;;;;;;;;15.91;64.46;100561.56;6098593;23;1088;-39
2021/12/26 11:32:20;;;;;;;;;;;;;;;15.93;63.73;100553.47;6098934;23;1067;-39
2021/12/26 11:34:51;;;;;;;;;;;;;;;15.89;63.87;100555.50;6098840;23;1126;-39
2021/12/26 11:37:22;;;;;;;;;;;;;;;15.88;64.68;100554.69;6098566;23;1139;-39
2021/12/26 11:39:54;;;;;;;;;;;;;;;15.88;63.93;100565.34;6098756;23;1940;-39
2021/12/26 11:42:42;;;;;;;;;;;;;;;15.90;64.85;100574.06;6098407;23;1087;-39
2021/12/26 11:45:12;;;;;;;;;;;;;;;15.89;63.96;100563.50;6098734;23;1097;-39
2021/12/26 11:47:58;;;;;;;;;;;;;;;15.88;64.08;100561.84;6098349;23;1063;-39
2021/12/26 11:50:33;;;;;;;;;;;;;;;15.82;64.15;100557.81;6098686;23;1075;-39
2021/12/26 11:53:08;;;;;;;;;;;;;;;15.83;63.93;100564.84;6097520;23;1168;-39
2021/12/26 11:55:51;;;;;;;;;;;;;;;15.83;63.92;100564.84;6098531;23;1062;-39
2021/12/26 11:58:33;;;;;;;;;;;;;;;15.81;64.69;100564.09;6098257;23;1055;-39
2021/12/26 12:01:06;;;;;;;;;;;;;;;15.80;64.02;100570.44;6095358;23;1893;-39
2021/12/26 12:03:36;;;;;;;;;;;;;;;15.82;64.02;100551.66;6098025;23;1376;-39
2021/12/26 12:06:03;;;;;;;;;;;;;;;15.83;64.38;100561.34;6098529;23;1054;-39
2021/12/26 12:08:30;;;;;;;;;;;;;;;15.84;63.54;100555.03;6098218;23;1079;-39
2021/12/26 12:11:14;;;;;;;;;;;;;;;15.84;63.89;100566.56;6098380;23;1000;-40
2021/12/26 12:13:55;;;;;;;;;;;;;;;15.77;64.03;100544.00;6098221;23;1026;-40
2021/12/26 12:16:39;;;;;;;;;;;;;;;15.81;64.41;100550.78;6098500;23;936;-39
2021/12/26 12:19:14;;;;;;;;;;;;;;;15.81;63.81;100558.78;6098368;23;1139;-39
2021/12/26 12:21:44;;;;;;;;;;;;;;;15.81;63.76;100542.78;6097896;23;1896;-39
2021/12/26 12:24:12;;;;;;;;;;;;;;;15.80;64.65;100553.59;6098494;23;1066;-39
2021/12/26 12:26:40;;;;;;;;;;;;;;;15.81;63.66;100540.13;6098294;23;1050;-39
2021/12/26 12:29:15;;;;;;;;;;;;;;;15.80;63.86;100543.75;6098386;23;1074;-39
2021/12/26 12:31:45;;;;;;;;;;;;;;;15.83;64.73;100559.50;6097803;23;990;-39
2021/12/26 12:34:13;;;;;;;;;;;;;;;15.81;65.04;100555.28;6098157;23;1071;-39
2021/12/26 12:36:45;;;;;;;;;;;;;;;15.79;65.31;100552.72;6098073;23;1055;-40
2021/12/26 12:39:16;;;;;;;;;;;;;;;15.80;64.67;100549.09;6098172;23;1002;-39
2021/12/26 12:41:45;;;;;;;;;;;;;;;15.81;65.15;100548.13;6098136;23;1944;-39
2021/12/26 12:44:31;;;;;;;;;;;;;;;15.78;63.82;100548.38;6097893;23;1074;-39
2021/12/26 12:47:05;;;;;;;;;;;;;;;15.77;63.95;100541.31;6098143;23;1067;-39
2021/12/26 12:49:45;;;;;;;;;;;;;;;15.82;64.71;100554.31;6098096;23;1139;-39
2021/12/26 12:52:36;;;;;;;;;;;;;;;15.79;64.95;100542.06;6098088;23;1073;-39
2021/12/26 12:55:03;;;;;;;;;;;;;;;15.79;64.17;100544.72;6097987;23;1050;-39
2021/12/26 12:57:36;;;;;;;;;;;;;;;15.81;63.45;100556.09;6097492;23;1194;-39
2021/12/26 13:00:29;;;;;;;;;;;;;;;15.82;63.68;100560.50;6097992;23;1043;-39
2021/12/26 13:02:57;;;;;;;;;;;;;;;15.78;64.79;100556.38;6097200;23;1957;-39